Time;durP1;ratioP1;P1;durP2;ratioP2;P2;SDS_P1;SDS_P2;PMS_P1;PMS_P2;Temp;Humidity;BMP_temperature;BMP_pressure;BME280_temperature;BME280_humidity;BME280_pressure;Samples;Min_cycle;Max_cycle;Signal;HPM_P1;HPM_P2
2022/08/15 00:00:55;;;;;;;5.53;3.45;;;17.10;92.60;;;;;;5054283;28;20017;-71
2022/08/15 00:03:32;;;;;;;5.28;3.42;;;17.10;92.70;;;;;;5016385;28;20021;-70
2022/08/15 00:05:59;;;;;;;;;;;17.10;92.90;;;;;;5014866;28;20530;-70
2022/08/15 00:08:26;;;;;;;;;;;17.10;93.00;;;;;;5015588;28;19905;-71
2022/08/15 00:10:52;;;;;;;;;;;17.10;93.10;;;;;;5014722;28;19955;-71
2022/08/15 00:13:26;;;;;;;;;;;17.10;93.30;;;;;;5015577;28;19991;-71
2022/08/15 00:15:54;;;;;;;4.43;3.40;;;17.00;93.70;;;;;;5013864;28;20270;-71
2022/08/15 00:18:21;;;;;;;4.50;3.30;;;17.00;93.90;;;;;;5015764;28;20030;-71
2022/08/15 00:20:48;;;;;;;3.83;3.17;;;16.90;94.00;;;;;;5014218;28;20035;-71
2022/08/15 00:23:17;;;;;;;4.15;3.38;;;16.90;94.10;;;;;;5015131;28;20088;-71
2022/08/15 00:25:46;;;;;;;5.75;3.63;;;16.90;94.30;;;;;;5015446;28;20378;-71
2022/08/15 00:28:13;;;;;;;4.82;3.50;;;16.80;94.40;;;;;;5014388;28;20045;-71
2022/08/15 00:30:41;;;;;;;5.00;3.63;;;16.80;94.60;;;;;;5014262;28;20148;-71
2022/08/15 00:33:07;;;;;;;3.97;3.38;;;16.80;94.70;;;;;;5014093;28;20524;-71
2022/08/15 00:35:36;;;;;;;4.50;3.35;;;16.80;94.70;;;;;;5014240;28;20549;-71
2022/08/15 00:38:12;;;;;;;4.35;3.30;;;16.80;94.80;;;;;;5013855;28;20541;-71
2022/08/15 00:43:28;;;;;;;4.05;3.33;;;16.80;94.70;;;;;;5015177;28;20556;-71
2022/08/15 00:45:54;;;;;;;4.97;3.60;;;16.90;94.80;;;;;;5030300;28;20038;-71
2022/08/15 00:51:10;;;;;;;4.70;3.40;;;16.80;95.20;;;;;;5015351;28;20052;-71
2022/08/15 00:53:37;;;;;;;4.57;3.70;;;16.90;95.30;;;;;;5015028;28;20109;-71
2022/08/15 00:56:04;;;;;;;4.47;3.17;;;16.90;95.60;;;;;;5014225;28;20044;-71
2022/08/15 00:58:30;;;;;;;4.40;3.53;;;16.80;95.80;;;;;;5013634;28;20022;-71
2022/08/15 01:00:57;;;;;;;4.80;3.53;;;16.80;95.80;;;;;;5013436;28;20054;-71
2022/08/15 01:03:27;;;;;;;4.28;3.50;;;16.70;95.80;;;;;;5013441;28;20054;-71
2022/08/15 01:05:57;;;;;;;4.80;3.67;;;16.70;96.00;;;;;;5030015;28;20052;-71
2022/08/15 01:08:26;;;;;;;4.55;3.60;;;16.70;96.10;;;;;;5013433;28;20080;-71
2022/08/15 01:10:54;;;;;;;4.00;3.13;;;16.70;96.10;;;;;;5014578;28;20072;-70
2022/08/15 01:13:19;;;;;;;5.65;3.55;;;16.60;96.20;;;;;;5012601;28;20034;-70
2022/08/15 01:15:45;;;;;;;4.57;3.70;;;16.60;96.70;;;;;;5015208;28;20393;-71
2022/08/15 01:18:12;;;;;;;4.13;3.42;;;16.50;97.10;;;;;;5013188;28;20030;-71
2022/08/15 01:20:41;;;;;;;4.88;4.20;;;16.40;97.00;;;;;;5014092;28;20029;-71
2022/08/15 01:23:28;;;;;;;5.18;3.63;;;16.40;97.00;;;;;;5013404;28;20026;-70
2022/08/15 01:25:57;;;;;;;4.88;3.35;;;16.40;97.40;;;;;;5013422;28;20045;-71
2022/08/15 01:28:53;;;;;;;4.32;3.60;;;16.40;97.70;;;;;;5013253;28;20030;-71
2022/08/15 01:31:21;;;;;;;4.15;3.20;;;16.30;97.70;;;;;;5013683;28;20457;-71
2022/08/15 01:33:53;;;;;;;5.63;3.78;;;16.30;97.90;;;;;;5029781;28;20030;-71
2022/08/15 01:36:21;;;;;;;4.20;3.47;;;16.40;98.00;;;;;;5029405;28;20034;-71
2022/08/15 01:39:09;;;;;;;5.53;3.50;;;16.30;97.90;;;;;;5029584;28;20030;-72
2022/08/15 01:41:56;;;;;;;5.10;3.85;;;16.30;97.80;;;;;;5012840;28;20386;-72
2022/08/15 01:44:34;;;;;;;4.90;4.10;;;16.40;98.00;;;;;;5029274;28;20030;-73
2022/08/15 01:47:26;;;;;;;6.15;3.63;;;16.40;98.20;;;;;;5012803;28;20026;-73
2022/08/15 01:50:08;;;;;;;4.80;3.75;;;16.30;98.20;;;;;;5027023;28;20042;-71
2022/08/15 01:52:39;;;;;;;5.32;4.00;;;16.30;98.30;;;;;;5013962;28;20018;-71
2022/08/15 01:55:06;;;;;;;4.70;4.18;;;16.30;98.90;;;;;;5012637;28;20482;-71
2022/08/15 01:57:32;;;;;;;4.70;3.83;;;16.20;99.10;;;;;;5013865;28;20486;-71
2022/08/15 01:59:59;;;;;;;5.20;4.22;;;16.10;99.00;;;;;;5013880;28;20109;-71
2022/08/15 02:02:26;;;;;;;5.03;3.97;;;16.10;99.10;;;;;;5012529;28;20052;-71
2022/08/15 02:04:54;;;;;;;5.80;4.20;;;16.10;99.10;;;;;;5012504;28;20022;-71
2022/08/15 02:07:25;;;;;;;8.75;5.63;;;16.10;99.10;;;;;;5013725;28;20101;-71
2022/08/15 02:09:52;;;;;;;8.48;5.78;;;16.20;99.40;;;;;;5012967;28;20037;-71
2022/08/15 02:12:24;;;;;;;8.85;6.20;;;16.20;99.20;;;;;;5012717;28;20509;-71
2022/08/15 02:14:49;;;;;;;8.90;5.30;;;16.20;99.30;;;;;;5012462;28;20116;-71
2022/08/15 02:17:16;;;;;;;6.38;4.38;;;16.20;99.40;;;;;;5012266;28;20109;-71
2022/08/15 02:19:48;;;;;;;4.75;3.92;;;16.20;99.50;;;;;;5028583;28;20022;-71
2022/08/15 02:22:16;;;;;;;5.25;3.63;;;16.10;99.50;;;;;;5013684;28;20041;-71
2022/08/15 02:24:42;;;;;;;4.88;4.07;;;16.10;99.60;;;;;;5015277;28;20041;-71
2022/08/15 02:27:08;;;;;;;6.45;3.88;;;16.10;99.80;;;;;;5016361;28;20142;-71
2022/08/15 02:29:35;;;;;;;5.07;3.97;;;16.10;99.90;;;;;;5016336;28;20058;-71
2022/08/15 02:32:21;;;;;;;5.30;4.20;;;16.10;99.90;;;;;;5032770;28;20053;-73
2022/08/15 02:34:48;;;;;;;5.85;3.80;;;16.10;99.90;;;;;;5017504;28;20080;-73
2022/08/15 02:37:18;;;;;;;4.35;3.42;;;16.10;99.90;;;;;;5016141;28;20033;-74
2022/08/15 02:39:48;;;;;;;5.47;3.88;;;16.00;99.90;;;;;;5017405;28;20033;-74
2022/08/15 02:42:15;;;;;;;4.68;4.10;;;16.00;99.90;;;;;;5016099;28;20033;-73
2022/08/15 02:44:42;;;;;;;6.43;4.30;;;16.00;99.90;;;;;;5017200;28;20022;-74
2022/08/15 02:47:13;;;;;;;4.88;3.88;;;15.90;99.90;;;;;;5015910;28;20034;-73
2022/08/15 02:49:38;;;;;;;4.45;3.45;;;15.80;99.90;;;;;;5017579;28;20037;-73
2022/08/15 02:52:04;;;;;;;4.65;3.95;;;15.80;99.90;;;;;;5017201;28;20030;-73
2022/08/15 02:54:30;;;;;;;4.93;3.97;;;15.80;99.90;;;;;;5032364;28;20052;-73
2022/08/15 02:56:56;;;;;;;5.88;4.47;;;15.80;99.90;;;;;;5032312;28;20033;-73
2022/08/15 02:59:22;;;;;;;5.00;4.25;;;15.90;99.90;;;;;;5016437;28;20026;-73
2022/08/15 03:01:49;;;;;;;6.13;5.05;;;15.80;99.90;;;;;;5016893;28;20033;-73
2022/08/15 03:04:19;;;;;;;6.53;5.88;;;15.80;99.90;;;;;;5016830;28;20507;-74
2022/08/15 03:06:46;;;;;;;6.72;5.40;;;15.90;99.90;;;;;;5015666;28;20056;-73
2022/08/15 03:09:13;;;;;;;6.45;5.07;;;15.90;99.90;;;;;;5015683;28;20034;-71
2022/08/15 03:11:41;;;;;;;6.18;4.80;;;15.90;99.90;;;;;;5016124;28;20030;-71
2022/08/15 03:14:14;;;;;;;6.93;4.93;;;15.90;99.90;;;;;;5016794;28;20076;-71
2022/08/15 03:16:43;;;;;;;6.32;4.45;;;15.90;99.90;;;;;;5029927;28;20061;-73
2022/08/15 03:19:11;;;;;;;4.80;4.07;;;15.90;99.90;;;;;;5035866;28;20021;-74
2022/08/15 03:21:37;;;;;;;6.80;4.50;;;15.90;99.90;;;;;;5035138;28;20470;-74
2022/08/15 03:24:04;;;;;;;5.35;4.43;;;15.90;99.90;;;;;;5035381;28;20036;-74
2022/08/15 03:26:30;;;;;;;5.13;4.28;;;15.90;99.90;;;;;;5035294;28;20030;-74
2022/08/15 03:28:58;;;;;;;6.70;4.43;;;15.80;99.90;;;;;;5035073;28;20033;-73
2022/08/15 03:31:24;;;;;;;4.93;4.18;;;15.80;99.90;;;;;;5034964;28;20029;-73
2022/08/15 03:33:50;;;;;;;5.72;4.50;;;15.80;99.90;;;;;;5036195;28;20436;-73
2022/08/15 03:36:20;;;;;;;5.40;4.13;;;15.80;99.90;;;;;;5033797;28;20029;-73
2022/08/15 03:38:47;;;;;;;5.32;4.32;;;15.80;99.90;;;;;;5036396;28;20025;-74
2022/08/15 03:41:15;;;;;;;5.80;4.35;;;15.80;99.90;;;;;;5034723;28;20500;-74
2022/08/15 03:43:44;;;;;;;5.28;4.20;;;15.70;99.90;;;;;;5034790;28;20026;-74
2022/08/15 03:46:16;;;;;;;5.85;4.38;;;15.70;99.90;;;;;;5035937;28;20022;-74
2022/08/15 03:48:45;;;;;;;5.85;4.40;;;15.70;99.90;;;;;;5037113;28;20461;-74
2022/08/15 03:51:12;;;;;;;4.85;3.85;;;15.70;99.90;;;;;;5034587;28;20029;-74
2022/08/15 03:53:44;;;;;;;4.78;3.95;;;15.70;99.90;;;;;;5034622;28;20029;-73
2022/08/15 03:56:18;;;;;;;4.90;4.20;;;15.60;99.90;;;;;;5035853;28;20040;-74
2022/08/15 03:58:44;;;;;;;8.02;5.45;;;15.60;99.90;;;;;;5035743;28;20026;-73
2022/08/15 04:01:17;;;;;;;6.28;5.05;;;15.60;99.90;;;;;;5035835;28;20028;-74
2022/08/15 04:03:45;;;;;;;6.00;4.70;;;15.50;99.90;;;;;;5035710;28;20022;-73
2022/08/15 04:06:15;;;;;;;5.38;4.43;;;15.50;99.90;;;;;;5035645;28;20021;-73
2022/08/15 04:08:42;;;;;;;8.38;5.13;;;15.40;99.90;;;;;;5034295;28;20444;-73
2022/08/15 04:11:08;;;;;;;7.10;5.13;;;15.50;99.90;;;;;;5035487;28;20044;-73
2022/08/15 04:13:35;;;;;;;7.10;5.55;;;15.50;99.90;;;;;;5034485;28;20470;-70
2022/08/15 04:16:02;;;;;;;7.63;5.57;;;15.50;99.90;;;;;;5035423;28;20462;-72
2022/08/15 04:18:29;;;;;;;7.35;5.53;;;15.50;99.90;;;;;;5034051;28;20033;-73
2022/08/15 04:20:58;;;;;;;8.70;5.38;;;15.50;99.90;;;;;;5034257;28;20034;-73
2022/08/15 04:23:24;;;;;;;6.13;5.25;;;15.40;99.90;;;;;;5035634;28;20033;-73
2022/08/15 04:25:51;;;;;;;5.38;4.45;;;15.40;99.90;;;;;;5035501;28;20021;-73
2022/08/15 04:28:18;;;;;;;8.85;4.53;;;15.40;99.90;;;;;;5035247;28;20149;-73
2022/08/15 04:30:46;;;;;;;7.97;4.68;;;15.30;99.90;;;;;;5035078;28;20470;-73
2022/08/15 04:33:28;;;;;;;6.05;4.50;;;15.30;99.90;;;;;;5035085;28;20033;-71
2022/08/15 04:36:00;;;;;;;5.20;4.50;;;15.30;99.90;;;;;;5034989;28;20031;-71
2022/08/15 04:38:26;;;;;;;6.72;5.07;;;15.40;99.90;;;;;;5033629;28;20025;-71
2022/08/15 04:40:53;;;;;;;7.15;4.53;;;15.40;99.90;;;;;;5033907;28;20036;-71
2022/08/15 04:43:20;;;;;;;6.82;5.22;;;15.30;99.90;;;;;;5033611;28;20049;-72
2022/08/15 04:45:46;;;;;;;6.85;5.00;;;15.30;99.90;;;;;;5034855;28;20071;-73
2022/08/15 04:48:16;;;;;;;5.80;4.88;;;15.30;99.90;;;;;;5034586;28;20029;-73
2022/08/15 04:50:44;;;;;;;5.80;5.05;;;15.40;99.90;;;;;;5033802;28;20435;-73
2022/08/15 04:53:11;;;;;;;9.00;5.25;;;15.40;99.90;;;;;;5033476;28;20025;-73
2022/08/15 04:55:43;;;;;;;7.03;4.93;;;15.40;99.90;;;;;;5033213;28;20056;-73
2022/08/15 04:58:12;;;;;;;6.00;5.22;;;15.40;99.90;;;;;;5034530;28;20048;-73
2022/08/15 05:00:40;;;;;;;7.18;5.50;;;15.40;99.90;;;;;;5034843;28;20064;-73
2022/08/15 05:03:18;;;;;;;6.18;4.95;;;15.30;99.90;;;;;;5033280;28;20025;-73
2022/08/15 05:05:48;;;;;;;6.53;5.53;;;15.30;99.90;;;;;;5033235;28;20525;-73
2022/08/15 05:08:15;;;;;;;8.07;5.20;;;15.30;99.90;;;;;;5034142;28;20033;-72
2022/08/15 05:10:42;;;;;;;5.55;4.65;;;15.30;99.90;;;;;;5034325;28;20033;-73
2022/08/15 05:13:10;;;;;;;6.43;5.18;;;15.30;99.90;;;;;;5033097;28;20029;-73
2022/08/15 05:15:36;;;;;;;7.07;5.13;;;15.40;99.90;;;;;;5033059;28;20022;-73
2022/08/15 05:18:01;;;;;;;6.40;4.68;;;15.50;99.90;;;;;;5034198;28;20036;-73
2022/08/15 05:20:27;;;;;;;8.82;4.63;;;15.50;99.90;;;;;;5032928;28;20030;-72
2022/08/15 05:23:04;;;;;;;6.47;5.20;;;15.60;99.90;;;;;;5033168;28;20029;-73
2022/08/15 05:25:31;;;;;;;8.02;5.70;;;15.60;99.90;;;;;;5032933;28;20074;-73
2022/08/15 05:27:57;;;;;;;6.65;5.45;;;15.70;99.90;;;;;;5032799;28;20112;-73
2022/08/15 05:30:23;;;;;;;6.60;5.43;;;15.70;99.90;;;;;;5034784;28;20565;-73
2022/08/15 05:33:11;;;;;;;8.20;5.65;;;15.70;99.90;;;;;;5032712;28;20029;-73
2022/08/15 05:35:42;;;;;;;7.95;6.18;;;15.70;99.90;;;;;;5034272;28;20105;-73
2022/08/15 05:38:14;;;;;;;9.38;6.47;;;15.70;99.90;;;;;;5032623;28;20033;-73
2022/08/15 05:41:00;;;;;;;7.85;6.13;;;15.80;99.90;;;;;;5032520;28;20026;-73
2022/08/15 05:43:44;;;;;;;7.95;5.70;;;15.70;99.90;;;;;;5034141;28;20025;-73
2022/08/15 05:46:21;;;;;;;6.45;5.03;;;15.70;99.90;;;;;;5032511;28;20028;-73
2022/08/15 05:49:10;;;;;;;7.75;5.20;;;15.80;99.90;;;;;;5032518;28;20074;-73
2022/08/15 05:51:52;;;;;;;7.45;4.85;;;15.80;99.90;;;;;;5011953;28;20040;-73
2022/08/15 05:54:25;;;;;;;5.95;4.82;;;15.80;99.90;;;;;;5032369;28;20030;-73
2022/08/15 05:57:14;;;;;;;5.85;4.90;;;15.90;99.90;;;;;;5032419;28;20029;-73
2022/08/15 05:59:43;;;;;;;6.15;5.03;;;15.90;99.90;;;;;;5023331;28;20084;-73
2022/08/15 06:02:22;;;;;;;8.25;6.40;;;16.00;99.90;;;;;;5033483;28;20071;-74
2022/08/15 06:04:59;;;;;;;10.35;6.43;;;16.00;99.90;;;;;;5032287;28;20104;-73
2022/08/15 06:07:27;;;;;;;9.00;6.68;;;16.00;99.90;;;;;;5033789;28;20100;-74
2022/08/15 06:10:10;;;;;;;9.25;6.85;;;16.10;99.90;;;;;;5033374;28;20033;-74
2022/08/15 06:12:43;;;;;;;8.02;6.53;;;16.10;99.90;;;;;;5033991;28;20025;-74
2022/08/15 06:15:18;;;;;;;7.70;6.20;;;16.10;99.90;;;;;;5032153;28;20029;-74
2022/08/15 06:17:49;;;;;;;8.07;6.10;;;16.20;99.90;;;;;;5032072;28;20029;-74
2022/08/15 06:20:19;;;;;;;8.30;6.50;;;16.20;99.90;;;;;;5032049;28;20026;-74
2022/08/15 06:23:17;;;;;;;6.85;5.50;;;16.30;99.90;;;;;;5033869;28;20380;-73
2022/08/15 06:26:02;;;;;;;9.40;7.32;;;16.30;99.90;;;;;;5032897;28;20040;-73
2022/08/15 06:28:42;;;;;;;8.30;6.22;;;16.30;99.90;;;;;;5033310;28;20030;-71
2022/08/15 06:31:31;;;;;;;7.82;6.07;;;16.30;99.90;;;;;;5033209;28;20030;-71
2022/08/15 06:34:25;;;;;;;13.30;6.97;;;16.40;99.90;;;;;;5032598;28;20347;-73
2022/08/15 06:37:11;;;;;;;10.25;8.30;;;16.50;99.90;;;;;;5032980;28;20045;-74
2022/08/15 06:40:11;;;;;;;10.18;7.20;;;16.60;99.90;;;;;;5031971;28;20363;-74
2022/08/15 06:42:40;;;;;;;11.25;7.80;;;16.70;99.90;;;;;;5031885;28;20053;-73
2022/08/15 06:45:25;;;;;;;12.05;7.40;;;16.80;99.90;;;;;;5031926;28;20036;-73
2022/08/15 06:47:55;;;;;;;9.63;7.30;;;16.90;99.90;;;;;;5033646;28;20018;-73
2022/08/15 06:50:33;;;;;;;9.50;7.97;;;17.00;99.90;;;;;;5033282;28;20033;-74
2022/08/15 06:53:27;;;;;;;10.77;7.50;;;17.10;99.90;;;;;;5033351;28;20040;-74
2022/08/15 06:55:58;;;;;;;10.95;7.82;;;17.10;99.90;;;;;;5031670;28;20091;-74
2022/08/15 06:58:45;;;;;;;9.50;6.82;;;17.30;99.90;;;;;;5033246;28;20040;-74
2022/08/15 07:01:17;;;;;;;11.23;7.35;;;17.30;99.90;;;;;;5031629;28;20017;-73
2022/08/15 07:04:00;;;;;;;10.27;7.82;;;17.40;99.90;;;;;;5032955;28;20022;-73
2022/08/15 07:06:41;;;;;;;9.55;7.18;;;17.50;99.90;;;;;;5031938;28;20036;-73
2022/08/15 07:09:28;;;;;;;7.43;6.25;;;17.50;99.90;;;;;;5032205;28;20088;-74
2022/08/15 07:12:46;;;;;;;9.50;6.40;;;17.60;99.90;;;;;;5036634;28;20092;-74
2022/08/15 07:15:37;;;;;;;8.55;7.35;;;17.70;99.90;;;;;;5026766;28;20038;-73
2022/08/15 07:18:12;;;;;;;8.07;6.43;;;17.90;99.90;;;;;;5036508;28;20029;-73
2022/08/15 07:20:38;;;;;;;8.32;6.40;;;18.10;99.90;;;;;;5036488;28;20053;-73
2022/08/15 07:23:19;;;;;;;6.93;6.00;;;18.20;99.70;;;;;;5036447;28;20436;-71
2022/08/15 07:25:48;;;;;;;7.00;5.32;;;18.20;99.10;;;;;;5036414;28;20390;-71
2022/08/15 07:28:19;;;;;;;10.07;6.75;;;18.30;98.90;;;;;;5035063;28;20025;-71
2022/08/15 07:31:17;;;;;;;;;;;18.40;98.90;;;;;;5035796;28;20030;-70
2022/08/15 07:33:47;;;;;;;9.60;7.85;;;18.60;98.70;;;;;;4992293;28;20358;-71
2022/08/15 07:36:24;;;;;;;11.40;8.70;;;18.80;98.20;;;;;;5034902;28;20083;-71
2022/08/15 07:38:51;;;;;;;10.15;8.80;;;19.00;97.60;;;;;;5034980;28;20056;-70
2022/08/15 07:41:23;;;;;;;11.23;8.77;;;19.10;97.80;;;;;;5034772;28;20029;-71
2022/08/15 07:44:19;;;;;;;10.38;8.90;;;19.10;98.00;;;;;;5034706;28;20067;-71
2022/08/15 07:47:09;;;;;;;8.98;7.50;;;19.10;97.60;;;;;;5031372;28;20033;-71
2022/08/15 07:49:37;;;;;;;13.40;8.02;;;19.20;97.20;;;;;;5036237;28;20032;-71
2022/08/15 07:52:15;;;;;;;9.50;6.88;;;19.30;96.10;;;;;;5035793;28;20481;-71
2022/08/15 07:54:46;;;;;;;9.25;7.55;;;19.50;97.10;;;;;;5035833;28;20025;-71
2022/08/15 07:57:33;;;;;;;7.60;6.40;;;19.70;96.40;;;;;;5034365;28;20036;-71
2022/08/15 08:00:18;;;;;;;7.72;6.57;;;19.90;96.00;;;;;;5036041;28;20026;-71
2022/08/15 08:03:21;;;;;;;7.35;6.30;;;20.10;95.50;;;;;;5034471;28;20052;-71
2022/08/15 08:06:07;;;;;;;8.50;6.60;;;20.20;95.30;;;;;;5034438;28;20021;-71
2022/08/15 08:08:47;;;;;;;9.20;6.70;;;20.40;95.40;;;;;;5034383;28;20033;-71
2022/08/15 08:11:44;;;;;;;9.40;6.70;;;20.60;95.50;;;;;;5035642;28;20029;-71
2022/08/15 08:14:23;;;;;;;9.68;7.68;;;20.90;95.60;;;;;;5035324;28;20029;-70
2022/08/15 08:16:59;;;;;;;9.35;7.47;;;21.00;94.70;;;;;;5035549;28;20039;-71
2022/08/15 08:19:34;;;;;;;9.55;6.90;;;21.10;95.40;;;;;;5035441;28;20028;-70
2022/08/15 08:22:23;;;;;;;9.00;6.03;;;21.30;95.70;;;;;;5033511;28;20021;-71
2022/08/15 08:25:02;;;;;;;8.10;6.18;;;21.40;95.10;;;;;;5035331;28;20477;-71
2022/08/15 08:27:45;;;;;;;9.63;5.97;;;21.60;94.00;;;;;;5034010;28;20064;-71
2022/08/15 08:30:19;;;;;;;7.93;5.63;;;21.70;93.00;;;;;;5033667;28;20025;-71
2022/08/15 08:33:22;;;;;;;6.22;5.25;;;21.90;93.20;;;;;;5033860;28;20096;-70
2022/08/15 08:36:21;;;;;;;6.78;4.65;;;22.10;92.70;;;;;;5034058;28;20026;-70
2022/08/15 08:39:02;;;;;;;5.93;4.25;;;22.20;92.50;;;;;;5033042;28;20033;-70
2022/08/15 08:41:34;;;;;;;;;;;22.30;91.50;;;;;;5033678;28;20029;-72
2022/08/15 08:44:19;;;;;;;5.90;3.88;;;22.40;91.30;;;;;;5049968;28;19909;-70
2022/08/15 08:47:11;;;;;;;4.20;3.42;;;22.60;90.70;;;;;;5033932;28;20409;-71
2022/08/15 08:49:57;;;;;;;4.82;3.45;;;22.60;89.10;;;;;;5025866;28;20041;-71
2022/08/15 08:52:45;;;;;;;4.70;2.92;;;22.70;89.50;;;;;;5034808;28;20053;-71
2022/08/15 08:55:31;;;;;;;4.18;3.28;;;22.90;89.80;;;;;;5033370;28;20109;-71
2022/08/15 08:58:06;;;;;;;4.53;3.22;;;23.20;87.00;;;;;;5049124;28;20116;-71
2022/08/15 09:00:42;;;;;;;5.90;3.33;;;23.40;85.90;;;;;;5033355;28;20025;-71
2022/08/15 09:03:26;;;;;;;4.55;3.28;;;23.60;85.70;;;;;;5033556;28;20030;-70
2022/08/15 09:05:54;;;;;;;4.70;3.42;;;23.80;83.50;;;;;;5033223;28;20076;-70
2022/08/15 09:08:27;;;;;;;5.32;3.38;;;23.90;85.30;;;;;;5033577;28;20425;-71
2022/08/15 09:10:57;;;;;;;5.15;3.38;;;24.00;82.30;;;;;;5033402;28;20113;-71
2022/08/15 09:13:33;;;;;;;4.57;3.00;;;24.20;81.70;;;;;;5033855;28;20029;-72
2022/08/15 09:16:21;;;;;;;4.20;3.40;;;24.30;81.40;;;;;;5028093;28;20043;-71
2022/08/15 09:18:59;;;;;;;5.30;3.50;;;24.30;80.10;;;;;;5032072;28;20033;-71
2022/08/15 09:21:25;;;;;;;6.88;3.97;;;24.30;81.20;;;;;;5032898;28;20112;-71
2022/08/15 09:23:50;;;;;;;13.07;3.88;;;24.20;81.10;;;;;;5032920;28;20022;-71
2022/08/15 09:26:31;;;;;;;4.60;3.53;;;24.20;81.70;;;;;;5034074;28;20021;-71
2022/08/15 09:29:17;;;;;;;5.93;3.80;;;24.20;80.20;;;;;;5032879;28;20021;-71
2022/08/15 09:32:11;;;;;;;5.35;3.42;;;24.10;80.40;;;;;;5032860;28;20362;-74
2022/08/15 09:35:20;;;;;;;5.00;3.67;;;24.10;82.50;;;;;;5031473;28;20036;-71
2022/08/15 09:38:14;;;;;;;8.48;4.78;;;24.10;80.10;;;;;;5032587;28;20124;-71
2022/08/15 09:40:43;;;;;;;8.23;4.75;;;24.10;79.00;;;;;;5033775;28;20025;-71
2022/08/15 09:43:24;;;;;;;7.78;4.85;;;24.10;78.20;;;;;;5033856;28;20061;-71
2022/08/15 09:46:27;;;;;;;6.63;4.82;;;24.00;79.40;;;;;;5034320;28;20029;-71
2022/08/15 09:49:03;;;;;;;5.63;3.92;;;24.10;79.00;;;;;;5032155;28;20033;-71
2022/08/15 09:51:48;;;;;;;7.13;4.07;;;24.20;77.30;;;;;;5031094;28;20060;-72
2022/08/15 09:54:24;;;;;;;7.95;4.50;;;24.20;77.40;;;;;;5032386;28;20421;-71
2022/08/15 09:57:11;;;;;;;4.93;3.67;;;24.30;78.20;;;;;;5032261;28;20026;-70
2022/08/15 09:59:37;;;;;;;4.18;3.42;;;24.40;77.70;;;;;;5033198;28;20048;-70
2022/08/15 10:02:32;;;;;;;5.05;3.50;;;24.60;78.70;;;;;;5033422;28;20105;-70
2022/08/15 10:04:59;;;;;;;;;;;24.90;77.60;;;;;;5030380;28;20604;-70
2022/08/15 10:07:41;;;;;;;;;;;25.00;75.90;;;;;;5033519;28;19905;-70
2022/08/15 10:10:13;;;;;;;;;;;25.00;75.50;;;;;;5032332;28;19909;-70
2022/08/15 10:13:00;;;;;;;;;;;25.00;72.10;;;;;;5048996;28;19909;-70
2022/08/15 10:15:35;;;;;;;;;;;25.00;72.70;;;;;;5034002;28;19916;-70
2022/08/15 10:18:05;;;;;;;;;;;25.00;73.80;;;;;;5033711;28;19909;-71
2022/08/15 10:20:31;;;;;;;;;;;25.10;73.30;;;;;;5032423;28;19944;-70
2022/08/15 10:22:59;;;;;;;;;;;25.20;72.60;;;;;;5032689;28;19912;-70
2022/08/15 10:25:28;;;;;;;;;;;25.20;73.20;;;;;;5033657;28;19905;-70
2022/08/15 10:27:56;;;;;;;;;;;25.30;74.20;;;;;;5032724;28;19959;-72
2022/08/15 10:30:24;;;;;;;;;;;25.40;71.80;;;;;;5034077;28;19912;-73
2022/08/15 10:32:52;;;;;;;;;;;25.40;72.40;;;;;;5032366;28;19905;-70
2022/08/15 10:35:30;;;;;;;;;;;25.40;71.60;;;;;;5034221;28;20468;-70
2022/08/15 10:37:59;;;;;;;;;;;25.40;70.70;;;;;;5048878;28;19909;-70
2022/08/15 10:40:36;;;;;;;;;;;25.40;71.90;;;;;;5032301;28;19912;-70
2022/08/15 10:43:04;;;;;;;;;;;25.40;73.00;;;;;;5033855;28;19905;-70
2022/08/15 10:45:41;;;;;;;;;;;25.60;72.10;;;;;;5036431;28;19905;-70
2022/08/15 10:48:29;;;;;;;;;;;25.80;73.50;;;;;;5037860;28;20270;-69
2022/08/15 10:51:01;;;;;;;;;;;26.00;73.20;;;;;;5037445;28;19959;-70
2022/08/15 10:53:27;;;;;;;;;;;26.10;71.70;;;;;;5036481;28;20304;-69
2022/08/15 10:56:05;;;;;;;;;;;25.90;71.80;;;;;;5037294;28;19913;-70
2022/08/15 10:58:32;;;;;;;;;;;25.70;72.90;;;;;;5036052;28;20388;-69
2022/08/15 11:01:04;;;;;;;;;;;25.50;73.00;;;;;;5033031;28;19948;-69
2022/08/15 11:03:42;;;;;;;;;;;25.40;75.40;;;;;;5046069;28;20308;-70
2022/08/15 11:06:12;;;;;;;;;;;25.30;75.50;;;;;;5037108;28;20353;-70
2022/08/15 11:09:07;;;;;;;;;;;25.10;73.60;;;;;;5037173;28;19905;-70
2022/08/15 11:11:37;;;;;;;;;;;24.90;75.60;;;;;;5019842;28;19975;-68
2022/08/15 11:14:08;;;;;;;;;;;24.70;76.90;;;;;;5037334;28;19905;-68
2022/08/15 11:16:54;;;;;;;;;;;24.60;77.40;;;;;;5035999;28;19905;-69
2022/08/15 11:19:28;;;;;;;;;;;24.50;77.30;;;;;;5034955;28;19905;-69
2022/08/15 11:21:56;;;;;;;;;;;24.40;77.20;;;;;;5036952;28;19914;-69
2022/08/15 11:24:27;;;;;;;;;;;24.30;78.00;;;;;;5035647;28;19945;-69
2022/08/15 11:27:08;;;;;;;;;;;24.20;78.20;;;;;;5035927;28;20281;-69
2022/08/15 11:29:34;;;;;;;;;;;24.10;78.70;;;;;;5036891;28;19951;-68
2022/08/15 11:31:59;;;;;;;;;;;24.00;78.80;;;;;;5035452;28;19940;-69
2022/08/15 11:34:36;;;;;;;;;;;23.90;80.20;;;;;;5035406;28;19905;-68
2022/08/15 11:37:09;;;;;;;;;;;23.90;79.30;;;;;;5036917;28;20254;-70
2022/08/15 11:39:38;;;;;;;;;;;23.80;80.60;;;;;;5035430;28;19908;-70
2022/08/15 11:42:04;;;;;;;;;;;23.70;79.80;;;;;;5035233;28;19953;-69
2022/08/15 11:44:40;;;;;;;;;;;23.70;80.80;;;;;;5036796;28;19905;-69
2022/08/15 11:47:10;;;;;;;;;;;23.70;81.00;;;;;;5035182;28;20254;-70
2022/08/15 11:49:45;;;;;;;;;;;23.70;80.80;;;;;;5036634;28;19954;-69
2022/08/15 11:52:11;;;;;;;;;;;23.60;80.80;;;;;;5036392;28;19908;-70
2022/08/15 11:54:36;;;;;;;;;;;23.70;80.60;;;;;;5035086;28;20423;-71
2022/08/15 11:57:04;;;;;;;;;;;23.80;80.80;;;;;;5033060;28;20054;-71
2022/08/15 11:59:32;;;;;;;;;;;23.90;80.50;;;;;;5033951;28;19909;-71
2022/08/15 12:02:00;;;;;;;;;;;24.00;79.90;;;;;;5036114;28;20281;-69
2022/08/15 12:04:31;;;;;;;;;;;24.10;78.50;;;;;;5051994;28;19905;-70
2022/08/15 12:06:57;;;;;;;;;;;24.10;79.10;;;;;;5034803;28;19905;-71
2022/08/15 12:09:30;;;;;;;;;;;24.20;79.10;;;;;;5036014;28;19905;-71
2022/08/15 12:11:55;;;;;;;;;;;24.20;78.70;;;;;;5034653;28;19996;-70
2022/08/15 12:14:22;;;;;;;;;;;24.10;77.70;;;;;;5051510;28;20404;-70
2022/08/15 12:16:50;;;;;;;;;;;24.10;77.90;;;;;;5034608;28;19908;-70
2022/08/15 12:19:22;;;;;;;;;;;24.00;77.90;;;;;;5043561;28;19992;-70
2022/08/15 12:21:48;;;;;;;;;;;23.90;79.50;;;;;;5017484;28;20293;-72
2022/08/15 12:24:20;;;;;;;;;;;23.90;80.30;;;;;;5024752;28;20278;-71
2022/08/15 12:26:46;;;;;;;;;;;23.90;81.30;;;;;;5034322;28;19916;-69
2022/08/15 12:29:11;;;;;;;;;;;24.10;81.10;;;;;;5034316;28;19909;-73
2022/08/15 12:31:39;;;;;;;;;;;24.10;80.10;;;;;;5034391;28;19916;-73
2022/08/15 12:34:11;;;;;;;;;;;24.20;78.60;;;;;;5033159;28;20327;-72
2022/08/15 12:36:39;;;;;;;;;;;24.40;78.50;;;;;;5034944;28;19916;-70
2022/08/15 12:39:04;;;;;;;;;;;24.70;76.80;;;;;;5033674;28;20269;-72
2022/08/15 12:41:31;;;;;;;;;;;25.00;77.30;;;;;;5034035;28;19905;-71
2022/08/15 12:43:56;;;;;;;;;;;25.10;75.60;;;;;;5034148;28;19909;-72
2022/08/15 12:46:22;;;;;;;;;;;25.40;76.20;;;;;;5035497;28;20384;-73
2022/08/15 12:48:49;;;;;;;;;;;25.70;76.40;;;;;;5026622;28;20321;-71
2022/08/15 12:51:15;;;;;;;;;;;26.00;74.70;;;;;;5033899;28;19909;-72
2022/08/15 12:53:41;;;;;;;;;;;26.30;72.80;;;;;;5019345;28;20000;-71
2022/08/15 12:56:07;;;;;;;;;;;26.50;70.10;;;;;;5014006;28;20368;-72
2022/08/15 12:58:33;;;;;;;;;;;26.60;70.80;;;;;;5032222;28;20323;-72
2022/08/15 13:01:00;;;;;;;;;;;26.80;68.70;;;;;;5033650;28;19909;-72
2022/08/15 13:03:28;;;;;;;;;;;26.90;69.00;;;;;;5033713;28;19951;-71
2022/08/15 13:05:59;;;;;;;;;;;27.00;68.30;;;;;;5035256;28;19956;-72
2022/08/15 13:08:25;;;;;;;;;;;27.10;70.60;;;;;;5034791;28;19905;-73
2022/08/15 13:10:50;;;;;;;;;;;27.30;68.40;;;;;;5035065;28;19911;-73
2022/08/15 13:13:17;;;;;;;;;;;27.40;66.40;;;;;;5033907;28;19912;-73
2022/08/15 13:15:43;;;;;;;;;;;27.50;67.70;;;;;;5034797;28;19905;-70
2022/08/15 13:18:15;;;;;;;;;;;27.60;65.50;;;;;;5034397;28;19916;-72
2022/08/15 13:23:40;;;;;;;;;;;27.90;65.20;;;;;;5033918;28;19916;-71
2022/08/15 13:26:08;;;;;;;;;;;28.10;63.20;;;;;;5034403;28;19928;-70
2022/08/15 13:28:38;;;;;;;;;;;28.10;61.80;;;;;;5033265;28;19905;-71
2022/08/15 13:31:04;;;;;;;;;;;28.10;61.60;;;;;;5033386;28;20362;-71
2022/08/15 13:33:31;;;;;;;;;;;28.10;63.40;;;;;;5033247;28;19967;-71
2022/08/15 13:35:58;;;;;;;;;;;28.20;62.80;;;;;;5033071;28;19905;-71
2022/08/15 13:38:26;;;;;;;;;;;28.30;64.20;;;;;;5032986;28;19955;-71
2022/08/15 13:40:51;;;;;;;;;;;28.50;64.00;;;;;;5032886;28;20426;-71
2022/08/15 13:43:17;;;;;;;;;;;28.60;60.80;;;;;;5034559;28;19909;-71
2022/08/15 13:45:43;;;;;;;;;;;28.60;61.80;;;;;;5032840;28;19944;-71
2022/08/15 13:48:12;;;;;;;;;;;28.80;62.40;;;;;;5032783;28;19952;-71
2022/08/15 13:50:41;;;;;;;;;;;28.90;61.30;;;;;;5033950;28;19911;-70
2022/08/15 13:53:07;;;;;;;;;;;28.90;61.00;;;;;;5034275;28;19963;-71